Cupertino, CA (95014)

5:16 AM PDT on July 24, 2016 (GMT -0700)
Monta Vista | | Change Station

Elev 535 ft 37.30 °N, 122.06 °W | Updated 55 seconds ago

Clear
Clear
55.1 °F
Feels Like 55.1 °F
N
0.0
Wind Variable Wind from North
Gusts 0.0 mph

Today
High -- | Low -- °F
--% Chance of Precip.
Yesterday
High -- | Low -- °F
Precip. -- in
Pressure 29.86 in
Visibility 10.0 miles
Clouds Clear
Dew Point 53 °F
Humidity 93%
Rainfall 0.00 in
Snow Depth Not available.
6:06 AM 8:22 PM
Waning Gibbous, 77% visible
METAR KNUQ 241156Z 00000KT 10SM CLR 16/12 A2985 RMK AO2 SLP109 T01560117 10178 20150 55006
Pressure 29.86 in
Visibility 10.0 miles
Clouds Clear
Dew Point 53 °F
Humidity 93%
Rainfall 0.00 in
Snow Depth Not available.
6:06 AM 8:22 PM
Waning Gibbous, 77% visible
METAR KNUQ 241156Z 00000KT 10SM CLR 16/12 A2985 RMK AO2 SLP109 T01560117 10178 20150 55006

10-Day Weather Forecast

Almanac

Astronomy

Jul. 24, 2016 Rise Set
Actual Time
Civil Twilight
Nautical Twilight
Astronomical Twilight
Moon
Length of Visible Light
Length of Day
Tomorrow will be .
, % of the Moon is Illuminated

Today's Extremes

State Highs State Lows

Community

WunderPhotos

Upload Photos

1,927,053 photos uploaded!

WunderBlog® & News

Nearby

Air Quality

  Air Quality AQ Index Pollutant
Not available.

Snow Depth

Station Depth Elevation

Earthquake Activity

City Distance Mag. Time & Date
Minimum magnitude displayed is 2.5.

Coastal Water Temperatures

Place Temperature

Stations

Nearby Weather Stations

Station Location Temp. Windchill Dew Point Humidity Wind Precip. Elev Updated Type
                   

Watches & Warnings

There are currently no watches in effect.